createdAt,value
2019-04-23T00:00:20.530Z,27.60
2019-04-23T00:03:12.874Z,26.37
2019-04-23T00:08:09.693Z,27.10
2019-04-23T00:10:43.022Z,25.40
2019-04-23T00:13:21.506Z,26.63
2019-04-23T00:16:03.723Z,24.77
2019-04-23T00:18:37.389Z,24.80
2019-04-23T00:21:20.741Z,24.97
2019-04-23T00:24:07.611Z,24.90
2019-04-23T00:26:33.318Z,25.03
2019-04-23T00:29:08.317Z,24.20
2019-04-23T00:31:40.829Z,25.30
2019-04-23T00:34:25.022Z,25.67
2019-04-23T00:36:44.770Z,26.93
2019-04-23T00:39:26.470Z,26.97
2019-04-23T00:42:05.053Z,27.83
2019-04-23T00:44:32.482Z,25.67
2019-04-23T00:47:11.421Z,26.27
2019-04-23T00:49:51.249Z,24.07
2019-04-23T00:52:26.755Z,24.60
2019-04-23T00:54:57.691Z,24.07
2019-04-23T00:57:35.579Z,23.93
2019-04-23T01:00:19.277Z,24.90
2019-04-23T01:07:54.745Z,25.80
2019-04-23T01:10:27.438Z,27.03
2019-04-23T01:13:11.380Z,27.30
2019-04-23T01:18:14.162Z,28.27
2019-04-23T01:20:44.567Z,27.60
2019-04-23T01:22:57.152Z,29.07
2019-04-23T01:25:45.131Z,29.10
2019-04-23T01:28:40.022Z,27.27
2019-04-23T01:31:09.331Z,28.30
2019-04-23T01:33:38.980Z,25.67
2019-04-23T01:36:22.009Z,27.43
2019-04-23T01:38:46.092Z,26.10
2019-04-23T01:41:14.559Z,27.83
2019-04-23T01:43:55.101Z,26.20
2019-04-23T01:46:22.788Z,27.47
2019-04-23T01:48:51.901Z,27.30
2019-04-23T01:51:26.167Z,26.87
2019-04-23T01:53:58.697Z,23.63
2019-04-23T01:56:28.443Z,24.00
2019-04-23T01:59:06.543Z,23.10
2019-04-23T02:01:40.131Z,20.77
2019-04-23T02:04:21.434Z,22.93
2019-04-23T02:06:44.958Z,20.43
2019-04-23T02:09:16.839Z,20.97
2019-04-23T02:11:53.623Z,23.07
2019-04-23T02:16:55.099Z,22.93
2019-04-23T02:19:34.806Z,22.90
2019-04-23T02:22:28.441Z,23.97
2019-04-23T02:24:59.366Z,25.27
2019-04-23T02:27:27.811Z,23.40
2019-04-23T02:32:38.172Z,21.67
2019-04-23T02:35:32.625Z,22.77
2019-04-23T02:37:54.468Z,22.13
2019-04-23T02:40:26.657Z,22.93
2019-04-23T02:42:49.682Z,23.20
2019-04-23T02:45:16.011Z,23.10
2019-04-23T02:48:03.371Z,22.10
2019-04-23T02:50:39.672Z,22.73
2019-04-23T02:58:32.779Z,25.97
2019-04-23T03:08:33.023Z,23.77
2019-04-23T03:13:46.036Z,23.37
2019-04-23T03:24:34.546Z,25.70
2019-04-23T03:27:10.376Z,24.13
2019-04-23T03:45:07.722Z,24.83
2019-04-23T03:47:37.508Z,25.97
2019-04-23T03:50:14.734Z,26.27
2019-04-23T03:52:44.356Z,25.60
2019-04-23T03:57:58.094Z,26.40
2019-04-23T04:10:44.529Z,21.67
2019-04-23T04:13:15.927Z,21.10
2019-04-23T04:18:33.133Z,23.63
2019-04-23T04:26:13.288Z,18.40
2019-04-23T04:28:46.048Z,17.07
2019-04-23T04:33:48.944Z,14.97
2019-04-23T04:36:14.043Z,14.50
2019-04-23T04:41:18.712Z,13.38
2019-04-23T04:46:35.119Z,12.18
2019-04-23T04:59:03.833Z,12.00
2019-04-23T05:01:48.346Z,12.47
2019-04-23T05:04:14.117Z,12.03
2019-04-23T05:06:56.873Z,12.25
2019-04-23T05:11:51.733Z,13.88
2019-04-23T05:14:26.167Z,15.98
2019-04-23T05:16:51.943Z,13.45
2019-04-23T05:21:58.962Z,17.48
2019-04-23T05:24:33.612Z,15.28
2019-04-23T05:26:57.996Z,13.32
2019-04-23T05:29:32.077Z,13.13
2019-04-23T05:32:07.589Z,12.60
2019-04-23T05:37:11.100Z,13.45
2019-04-23T05:39:39.808Z,12.25
2019-04-23T05:42:26.069Z,10.20
2019-04-23T05:44:50.188Z,9.83
2019-04-23T05:47:20.383Z,9.50
2019-04-23T05:49:54.622Z,9.40
2019-04-23T05:52:30.809Z,14.85
2019-04-23T05:55:02.420Z,9.18
2019-04-23T05:57:35.513Z,9.88
2019-04-23T06:00:04.047Z,7.97
2019-04-23T06:02:45.686Z,7.53
2019-04-23T06:05:10.422Z,7.80
2019-04-23T06:10:18.122Z,8.13
2019-04-23T06:12:52.281Z,7.25
2019-04-23T06:15:28.981Z,6.70
2019-04-23T06:18:06.656Z,8.05
2019-04-23T06:20:38.391Z,7.40
2019-04-23T06:23:06.086Z,7.55
2019-04-23T06:25:49.557Z,6.80
2019-04-23T06:30:46.760Z,6.50
2019-04-23T06:35:53.137Z,7.17
2019-04-23T06:40:59.550Z,7.17
2019-04-23T06:43:42.035Z,7.05
2019-04-23T06:46:05.692Z,8.65
2019-04-23T06:48:40.939Z,6.28
2019-04-23T06:51:20.523Z,7.55
2019-04-23T06:53:43.756Z,8.53
2019-04-23T06:56:28.717Z,8.45
2019-04-23T06:58:53.026Z,7.00
2019-04-23T07:01:17.621Z,5.62
2019-04-23T07:03:57.152Z,6.08
2019-04-23T07:06:37.821Z,6.22
2019-04-23T07:11:39.165Z,5.92
2019-04-23T07:14:30.585Z,7.20
2019-04-23T07:16:41.342Z,6.50
2019-04-23T07:19:24.242Z,5.83
2019-04-23T07:21:51.347Z,7.95
2019-04-23T07:24:16.569Z,5.60
2019-04-23T07:26:49.458Z,5.62
2019-04-23T07:29:25.416Z,6.33
2019-04-23T07:34:28.250Z,6.70
2019-04-23T07:40:11.289Z,5.78
2019-04-23T07:42:41.652Z,5.60
2019-04-23T07:45:32.981Z,4.70
2019-04-23T07:48:03.904Z,5.33
2019-04-23T07:53:11.431Z,6.78
2019-04-23T07:55:43.370Z,5.62
2019-04-23T07:58:15.767Z,7.25
2019-04-23T08:05:44.006Z,6.12
2019-04-23T08:08:30.294Z,6.10
2019-04-23T08:11:16.320Z,5.58
2019-04-23T08:13:42.342Z,4.42
2019-04-23T08:16:13.723Z,5.28
2019-04-23T08:18:39.913Z,6.12
2019-04-23T08:21:10.473Z,6.10
2019-04-23T08:29:24.987Z,5.60
2019-04-23T08:32:05.412Z,6.00
2019-04-23T08:34:48.313Z,12.13
2019-04-23T08:37:04.926Z,5.22
2019-04-23T08:39:38.298Z,5.83
2019-04-23T08:42:27.021Z,4.95
2019-04-23T08:45:01.756Z,5.85
2019-04-23T08:47:24.971Z,5.78
2019-04-23T08:49:50.567Z,5.42
2019-04-23T08:52:25.571Z,6.15
2019-04-23T08:57:33.719Z,6.17
2019-04-23T09:00:02.855Z,5.03
2019-04-23T09:05:34.735Z,6.25
2019-04-23T09:07:47.999Z,5.65
2019-04-23T09:10:19.563Z,4.53
2019-04-23T09:12:55.283Z,4.67
2019-04-23T09:15:36.789Z,5.60
2019-04-23T09:20:27.605Z,5.97
2019-04-23T09:22:59.965Z,5.67
2019-04-23T09:25:40.719Z,4.92
2019-04-23T09:28:09.476Z,5.55
2019-04-23T09:30:49.249Z,4.83
2019-04-23T09:33:26.242Z,6.47
2019-04-23T09:36:09.808Z,5.05
2019-04-23T09:38:46.725Z,4.87
2019-04-23T09:44:02.827Z,5.50
2019-04-23T09:46:53.006Z,10.18
2019-04-23T09:49:18.726Z,9.93
2019-04-23T09:56:47.813Z,4.45
2019-04-23T09:59:28.714Z,4.83
2019-04-23T10:01:44.961Z,6.22
2019-04-23T10:04:12.641Z,5.28
2019-04-23T10:06:36.502Z,5.28
2019-04-23T10:09:09.354Z,6.00
2019-04-23T10:11:37.671Z,6.25
2019-04-23T10:14:10.480Z,4.87
2019-04-23T10:16:43.197Z,4.95
2019-04-23T10:19:15.132Z,5.50
2019-04-23T10:21:47.030Z,5.75
2019-04-23T10:24:19.165Z,5.22
2019-04-23T10:26:50.468Z,5.70
2019-04-23T10:29:24.030Z,4.87
2019-04-23T10:31:57.640Z,4.97
2019-04-23T10:34:30.470Z,5.70
2019-04-23T10:37:01.913Z,4.62
2019-04-23T10:39:37.878Z,4.85
2019-04-23T10:42:07.820Z,4.80
2019-04-23T10:44:50.338Z,6.05
2019-04-23T10:48:13.834Z,4.85
2019-04-23T10:50:51.260Z,5.12
2019-04-23T10:58:31.460Z,6.15
2019-04-23T11:01:04.512Z,5.35
2019-04-23T11:03:49.254Z,6.75
2019-04-23T11:06:17.596Z,5.90
2019-04-23T11:08:56.002Z,6.08
2019-04-23T11:11:23.950Z,6.20
2019-04-23T11:13:53.034Z,5.50
2019-04-23T11:16:45.733Z,4.87
2019-04-23T11:24:11.854Z,5.10
2019-04-23T11:26:44.165Z,6.30
2019-04-23T11:29:15.092Z,5.95
2019-04-23T11:31:43.362Z,4.95
2019-04-23T11:34:44.503Z,5.95
2019-04-23T11:36:56.010Z,4.90
2019-04-23T11:39:23.182Z,5.28
2019-04-23T11:41:58.021Z,6.62
2019-04-23T11:44:34.326Z,5.78
2019-04-23T11:52:09.756Z,6.22
2019-04-23T12:02:22.035Z,5.83
2019-04-23T12:05:00.838Z,6.25
2019-04-23T12:07:32.564Z,5.08
2019-04-23T12:10:02.773Z,6.08
2019-04-23T12:12:39.870Z,6.00
2019-04-23T12:17:51.215Z,6.12
2019-04-23T12:20:28.578Z,6.20
2019-04-23T12:23:04.200Z,5.70
2019-04-23T12:25:32.375Z,6.00
2019-04-23T12:27:59.978Z,6.00
2019-04-23T12:30:39.419Z,6.20
2019-04-23T12:33:21.449Z,5.72
2019-04-23T12:35:39.239Z,6.50
2019-04-23T12:38:21.987Z,6.22
2019-04-23T12:40:45.825Z,5.42
2019-04-23T12:43:19.083Z,5.80
2019-04-23T12:48:41.332Z,6.15
2019-04-23T12:51:24.385Z,5.15
2019-04-23T12:53:45.585Z,6.45
2019-04-23T12:56:03.727Z,5.58
2019-04-23T12:58:27.642Z,6.85
2019-04-23T13:01:18.679Z,8.03
2019-04-23T13:03:41.641Z,5.58
2019-04-23T13:06:17.355Z,6.75
2019-04-23T13:11:30.109Z,6.22
2019-04-23T13:13:58.842Z,6.53
2019-04-23T13:16:39.813Z,5.60
2019-04-23T13:19:13.764Z,6.10
2019-04-23T13:22:00.332Z,4.58
2019-04-23T13:24:11.393Z,6.08
2019-04-23T13:26:47.685Z,8.35
2019-04-23T13:29:28.971Z,5.70
2019-04-23T13:31:51.831Z,5.70
2019-04-23T13:34:32.099Z,7.25
2019-04-23T13:37:08.286Z,5.70
2019-04-23T13:39:33.285Z,6.00
2019-04-23T13:42:06.233Z,6.65
2019-04-23T13:44:43.399Z,5.85
2019-04-23T13:47:20.027Z,5.50
2019-04-23T13:49:51.176Z,6.97
2019-04-23T13:52:45.543Z,6.62
2019-04-23T14:02:40.283Z,5.95
2019-04-23T14:04:59.792Z,6.22
2019-04-23T14:07:43.292Z,5.92
2019-04-23T14:10:23.548Z,6.30
2019-04-23T14:13:03.710Z,5.95
2019-04-23T14:15:19.749Z,5.75
2019-04-23T14:20:21.366Z,5.03
2019-04-23T14:25:28.069Z,4.90
2019-04-23T14:28:16.078Z,5.92
2019-04-23T14:30:38.978Z,6.72
2019-04-23T14:33:12.078Z,5.85
2019-04-23T14:35:40.001Z,5.08
2019-04-23T14:48:38.633Z,5.28
2019-04-23T14:51:13.372Z,6.42
2019-04-23T14:53:46.431Z,5.70
2019-04-23T14:56:17.070Z,6.78
2019-04-23T14:58:57.228Z,5.58
2019-04-23T15:01:27.410Z,6.35
2019-04-23T15:03:49.406Z,6.75
2019-04-23T15:07:00.755Z,6.20
2019-04-23T15:09:07.419Z,6.65
2019-04-23T15:14:06.077Z,5.20
2019-04-23T15:16:39.156Z,6.60
2019-04-23T15:19:35.143Z,6.40
2019-04-23T15:24:27.820Z,5.05
2019-04-23T15:29:09.321Z,5.33
2019-04-23T15:32:03.086Z,7.95
2019-04-23T15:34:47.334Z,7.45
2019-04-23T15:39:55.422Z,8.08
2019-04-23T15:44:55.219Z,7.10
2019-04-23T15:47:26.485Z,5.97
2019-04-23T15:50:10.288Z,7.92
2019-04-23T15:52:37.499Z,7.05
2019-04-23T15:55:01.601Z,7.50
2019-04-23T15:57:56.234Z,6.67
2019-04-23T16:00:07.251Z,6.15
2019-04-23T16:02:13.329Z,7.78
2019-04-23T16:04:44.239Z,6.90
2019-04-23T16:07:31.413Z,7.35
2019-04-23T16:10:22.035Z,7.12
2019-04-23T16:12:54.741Z,6.90
2019-04-23T16:18:03.903Z,7.40
2019-04-23T16:23:15.179Z,6.25
2019-04-23T16:25:44.467Z,6.25
2019-04-23T16:28:25.730Z,6.20
2019-04-23T16:31:00.130Z,6.33
2019-04-23T16:33:20.177Z,7.00
2019-04-23T16:36:21.800Z,6.70
2019-04-23T16:38:38.968Z,7.55
2019-04-23T16:41:09.820Z,6.42
2019-04-23T16:43:44.050Z,6.90
2019-04-23T16:46:13.066Z,6.55
2019-04-23T16:49:02.108Z,6.85
2019-04-23T16:51:24.715Z,8.88
2019-04-23T16:53:56.691Z,7.87
2019-04-23T16:56:52.927Z,9.40
2019-04-23T16:59:07.000Z,8.83
2019-04-23T17:01:27.984Z,7.62
2019-04-23T17:04:11.017Z,7.37
2019-04-23T17:06:36.177Z,9.73
2019-04-23T17:09:09.512Z,9.20
2019-04-23T17:11:41.838Z,9.28
2019-04-23T17:14:21.056Z,9.58
2019-04-23T17:16:42.733Z,8.95
2019-04-23T17:19:22.709Z,9.63
2019-04-23T17:27:05.478Z,10.10
2019-04-23T17:29:43.382Z,8.08
2019-04-23T17:32:02.489Z,9.05
2019-04-23T17:34:47.534Z,9.68
2019-04-23T17:37:19.985Z,10.72
2019-04-23T17:40:04.441Z,10.13
2019-04-23T17:42:55.487Z,11.90
2019-04-23T17:47:52.068Z,9.50
2019-04-23T17:53:00.972Z,9.55
2019-04-23T17:55:29.784Z,9.70
2019-04-23T17:58:12.691Z,11.05
2019-04-23T18:00:44.153Z,10.13
2019-04-23T18:03:04.508Z,7.58
2019-04-23T18:05:43.976Z,6.97
2019-04-23T18:08:15.305Z,8.13
2019-04-23T18:13:20.770Z,9.35
2019-04-23T18:16:04.124Z,9.80
2019-04-23T18:24:19.612Z,11.00
2019-04-23T18:27:12.008Z,9.50
2019-04-23T18:35:15.410Z,11.80
2019-04-23T18:37:30.032Z,11.43
2019-04-23T18:40:00.376Z,10.05
2019-04-23T18:42:40.443Z,9.85
2019-04-23T18:45:14.448Z,10.30
2019-04-23T18:47:47.530Z,10.25
2019-04-23T18:50:24.910Z,8.95
2019-04-23T18:55:37.047Z,10.70
2019-04-23T18:58:00.644Z,10.35
2019-04-23T19:00:36.974Z,10.75
2019-04-23T19:03:20.739Z,12.65
2019-04-23T19:06:15.315Z,10.55
2019-04-23T19:09:01.334Z,10.68
2019-04-23T19:11:15.866Z,10.35
2019-04-23T19:16:28.607Z,8.65
2019-04-23T19:18:56.250Z,9.68
2019-04-23T19:21:48.396Z,10.93
2019-04-23T19:23:54.761Z,13.83
2019-04-23T19:29:12.973Z,12.85
2019-04-23T19:34:34.035Z,12.85
2019-04-23T19:36:58.614Z,10.30
2019-04-23T19:39:29.447Z,10.18
2019-04-23T19:44:32.780Z,11.57
2019-04-23T19:47:09.228Z,10.40
2019-04-23T19:49:36.957Z,11.60
2019-04-23T19:57:12.027Z,13.13
2019-04-23T19:59:51.070Z,12.53
2019-04-23T20:07:52.166Z,13.58
2019-04-23T20:10:07.881Z,13.32
2019-04-23T20:15:16.259Z,12.20
2019-04-23T20:20:08.423Z,13.30
2019-04-23T20:22:47.287Z,13.70
2019-04-23T20:31:58.238Z,13.05
2019-04-23T20:33:40.846Z,12.80
2019-04-23T20:35:46.899Z,12.93
2019-04-23T20:43:23.798Z,14.60
2019-04-23T20:46:00.211Z,14.43
2019-04-23T20:50:56.318Z,14.15
2019-04-23T20:53:50.623Z,12.28
2019-04-23T20:56:30.138Z,9.83
2019-04-23T21:04:00.392Z,15.08
2019-04-23T21:06:37.482Z,14.35
2019-04-23T21:11:48.715Z,13.65
2019-04-23T21:14:26.757Z,15.35
2019-04-23T21:16:50.553Z,14.40
2019-04-23T21:19:30.187Z,13.53
2019-04-23T21:22:13.217Z,14.13
2019-04-23T21:24:42.822Z,17.77
2019-04-23T21:27:35.490Z,16.07
2019-04-23T21:32:38.769Z,14.95
2019-04-23T21:35:05.214Z,16.15
2019-04-23T21:37:49.975Z,16.57
2019-04-23T21:40:40.187Z,17.57
2019-04-23T21:45:35.372Z,15.60
2019-04-23T21:50:43.822Z,13.72
2019-04-23T21:53:00.709Z,15.18
2019-04-23T21:55:48.693Z,15.20
2019-04-23T22:00:51.935Z,14.85
2019-04-23T22:03:19.663Z,14.60
2019-04-23T22:05:56.782Z,13.75
2019-04-23T22:08:20.527Z,13.98
2019-04-23T22:11:13.069Z,12.58
2019-04-23T22:13:41.598Z,14.20
2019-04-23T22:16:07.281Z,12.25
2019-04-23T22:18:55.890Z,13.62
2019-04-23T22:21:13.953Z,12.35
2019-04-23T22:23:52.926Z,13.80
2019-04-23T22:28:58.379Z,14.43
2019-04-23T22:31:18.787Z,13.25
2019-04-23T22:34:02.652Z,15.08
2019-04-23T22:36:21.051Z,13.37
2019-04-23T22:39:00.035Z,13.53
2019-04-23T22:41:37.679Z,13.38
2019-04-23T22:46:50.177Z,13.53
2019-04-23T22:49:23.063Z,16.77
2019-04-23T22:56:54.804Z,15.23
2019-04-23T22:59:28.162Z,15.53
2019-04-23T23:02:03.866Z,13.72
2019-04-23T23:04:32.718Z,14.68
2019-04-23T23:09:43.529Z,12.78
2019-04-23T23:12:17.684Z,13.60
2019-04-23T23:14:45.758Z,13.58
2019-04-23T23:17:18.479Z,14.03
2019-04-23T23:20:03.597Z,12.73
2019-04-23T23:22:20.288Z,13.65
2019-04-23T23:25:04.741Z,12.88
2019-04-23T23:27:29.999Z,13.93
2019-04-23T23:30:06.513Z,13.68
2019-04-23T23:32:40.849Z,15.70
2019-04-23T23:37:42.113Z,17.70
2019-04-23T23:40:23.776Z,25.93
2019-04-23T23:42:56.147Z,20.27
2019-04-23T23:48:06.650Z,14.78
2019-04-23T23:53:02.439Z,15.97
